createdAt,value
2023-01-03T00:01:59.153Z,11.60
2023-01-03T00:04:25.846Z,11.50
2023-01-03T00:06:53.391Z,11.50
2023-01-03T00:09:21.698Z,11.50
2023-01-03T00:12:07.682Z,11.50
2023-01-03T00:14:35.634Z,11.50
2023-01-03T00:17:03.251Z,11.50
2023-01-03T00:19:32.308Z,11.40
2023-01-03T00:21:58.891Z,11.40
2023-01-03T00:24:25.483Z,11.40
2023-01-03T00:26:52.085Z,11.40
2023-01-03T00:29:18.920Z,11.50
2023-01-03T00:31:45.640Z,11.40
2023-01-03T00:34:12.290Z,11.30
2023-01-03T00:36:38.984Z,11.40
2023-01-03T00:39:06.314Z,11.30
2023-01-03T00:41:33.119Z,11.40
2023-01-03T00:43:59.681Z,11.40
2023-01-03T00:46:26.626Z,11.30
2023-01-03T00:48:53.246Z,11.30
2023-01-03T00:51:21.385Z,11.30
2023-01-03T00:53:48.625Z,11.20
2023-01-03T00:56:16.747Z,11.20
2023-01-03T00:58:43.560Z,11.10
2023-01-03T01:01:12.443Z,11.00
2023-01-03T01:03:40.624Z,10.90
2023-01-03T01:06:11.387Z,10.70
2023-01-03T01:08:37.947Z,10.70
2023-01-03T01:11:04.578Z,10.70
2023-01-03T01:13:32.083Z,10.70
2023-01-03T01:16:02.637Z,10.60
2023-01-03T01:18:29.508Z,10.60
2023-01-03T01:20:56.332Z,10.60
2023-01-03T01:23:22.943Z,10.50
2023-01-03T01:25:49.491Z,10.50
2023-01-03T01:28:16.140Z,10.50
2023-01-03T01:30:42.784Z,10.50
2023-01-03T01:33:09.381Z,10.40
2023-01-03T01:35:35.965Z,10.40
2023-01-03T01:38:02.547Z,10.50
2023-01-03T01:40:30.692Z,10.40
2023-01-03T01:43:17.476Z,10.40
2023-01-03T01:45:44.873Z,10.30
2023-01-03T01:48:12.901Z,10.30
2023-01-03T01:50:39.431Z,10.30
2023-01-03T01:53:14.376Z,10.30
2023-01-03T01:56:13.154Z,10.20
2023-01-03T01:58:41.091Z,10.20
2023-01-03T02:01:10.769Z,10.10
2023-01-03T02:03:37.812Z,10.10
2023-01-03T02:06:05.897Z,10.10
2023-01-03T02:08:32.459Z,10.10
2023-01-03T02:10:59.037Z,10.00
2023-01-03T02:13:36.887Z,10.00
2023-01-03T02:16:03.521Z,10.00
2023-01-03T02:18:54.979Z,10.00
2023-01-03T02:21:27.634Z,10.00
2023-01-03T02:23:57.280Z,10.00
2023-01-03T02:26:33.177Z,10.00
2023-01-03T02:29:19.135Z,10.00
2023-01-03T02:31:52.521Z,10.00
2023-01-03T02:34:37.695Z,9.90
2023-01-03T02:37:13.805Z,9.80
2023-01-03T02:39:46.406Z,9.70
2023-01-03T02:42:43.975Z,9.60
2023-01-03T02:45:16.302Z,9.50
2023-01-03T02:47:48.828Z,9.40
2023-01-03T02:50:15.545Z,9.40
2023-01-03T02:52:43.689Z,9.40
2023-01-03T02:55:21.939Z,9.40
2023-01-03T02:57:54.960Z,9.40
2023-01-03T03:00:24.113Z,9.30
2023-01-03T03:02:52.463Z,9.30
2023-01-03T03:05:24.721Z,9.30
2023-01-03T03:07:51.461Z,9.20
2023-01-03T03:10:36.853Z,9.20
2023-01-03T03:13:15.454Z,9.20
2023-01-03T03:15:46.558Z,9.20
2023-01-03T03:18:16.567Z,9.20
2023-01-03T03:21:01.747Z,9.10
2023-01-03T03:23:48.867Z,9.00
2023-01-03T03:26:18.302Z,9.00
2023-01-03T03:28:48.168Z,8.90
2023-01-03T03:31:22.865Z,8.90
2023-01-03T03:34:02.542Z,9.00
2023-01-03T03:36:31.813Z,9.00
2023-01-03T03:38:58.392Z,9.00
2023-01-03T03:41:50.814Z,9.00
2023-01-03T03:44:47.868Z,9.00
2023-01-03T03:47:24.262Z,9.00
2023-01-03T03:49:52.616Z,8.90
2023-01-03T03:52:20.951Z,11.00
2023-01-03T03:54:49.567Z,9.00
2023-01-03T03:57:20.852Z,9.00
2023-01-03T03:59:49.871Z,8.90
2023-01-03T04:02:17.421Z,8.90
2023-01-03T04:04:46.916Z,9.00
2023-01-03T04:07:13.484Z,9.00
2023-01-03T04:09:40.044Z,8.90
2023-01-03T04:12:06.729Z,9.00
2023-01-03T04:14:33.284Z,8.90
2023-01-03T04:16:59.902Z,9.00
2023-01-03T04:19:26.650Z,9.00
2023-01-03T04:21:53.223Z,9.00
2023-01-03T04:24:22.133Z,9.00
2023-01-03T04:26:48.937Z,9.00
2023-01-03T04:29:15.564Z,9.00
2023-01-03T04:31:42.211Z,9.00
2023-01-03T04:34:08.866Z,9.00
2023-01-03T04:36:35.584Z,9.00
2023-01-03T04:39:02.161Z,9.00
2023-01-03T04:41:28.727Z,9.00
2023-01-03T04:44:05.004Z,9.00
2023-01-03T04:46:39.654Z,9.00
2023-01-03T04:49:07.141Z,9.00
2023-01-03T04:51:34.083Z,9.00
2023-01-03T04:54:00.758Z,9.00
2023-01-03T04:56:28.323Z,9.00
2023-01-03T04:58:55.359Z,9.00
2023-01-03T05:01:22.243Z,9.00
2023-01-03T05:03:49.024Z,9.00
2023-01-03T05:06:15.687Z,9.00
2023-01-03T05:08:44.564Z,9.00
2023-01-03T05:11:11.139Z,9.00
2023-01-03T05:13:37.698Z,9.00
2023-01-03T05:16:05.936Z,9.00
2023-01-03T05:18:32.746Z,9.00
2023-01-03T05:21:23.266Z,9.00
2023-01-03T05:24:08.469Z,9.00
2023-01-03T05:26:36.460Z,9.00
2023-01-03T05:29:03.182Z,9.00
2023-01-03T05:31:29.777Z,9.10
2023-01-03T05:33:56.973Z,9.10
2023-01-03T05:36:23.532Z,9.10
2023-01-03T05:38:50.197Z,9.20
2023-01-03T05:41:39.530Z,9.20
2023-01-03T05:44:06.571Z,9.10
2023-01-03T05:46:33.188Z,9.10
2023-01-03T05:48:59.929Z,9.10
2023-01-03T05:51:26.476Z,9.10
2023-01-03T05:53:53.025Z,9.10
2023-01-03T05:56:19.748Z,9.10
2023-01-03T05:58:46.497Z,9.10
2023-01-03T06:01:14.149Z,9.00
2023-01-03T06:03:43.158Z,9.00
2023-01-03T06:06:09.898Z,9.10
2023-01-03T06:08:36.625Z,9.00
2023-01-03T06:11:06.779Z,9.10
2023-01-03T06:13:33.577Z,9.00
2023-01-03T06:16:24.804Z,9.00
2023-01-03T06:18:51.619Z,9.00
2023-01-03T06:21:18.320Z,9.00
2023-01-03T06:23:48.001Z,9.00
2023-01-03T06:26:15.249Z,9.00
2023-01-03T06:28:42.017Z,9.00
2023-01-03T06:31:09.339Z,9.00
2023-01-03T06:33:36.363Z,9.00
2023-01-03T06:36:04.390Z,9.00
2023-01-03T06:38:30.962Z,8.90
2023-01-03T06:40:57.559Z,8.90
2023-01-03T06:43:24.114Z,8.90
2023-01-03T06:46:09.231Z,8.90
2023-01-03T06:48:54.531Z,8.90
2023-01-03T06:51:40.198Z,8.90
2023-01-03T06:54:07.870Z,8.90
2023-01-03T06:56:34.470Z,8.90
2023-01-03T06:59:01.039Z,8.90
2023-01-03T07:01:27.809Z,8.90
2023-01-03T07:03:54.459Z,8.90
2023-01-03T07:06:21.105Z,8.90
2023-01-03T07:08:48.683Z,8.90
2023-01-03T07:11:15.460Z,8.90
2023-01-03T07:14:00.225Z,8.90
2023-01-03T07:16:28.139Z,8.90
2023-01-03T07:18:55.847Z,8.90
2023-01-03T07:21:23.581Z,8.80
2023-01-03T07:23:51.818Z,8.90
2023-01-03T07:26:18.387Z,8.80
2023-01-03T07:28:45.054Z,8.80
2023-01-03T07:31:11.655Z,8.80
2023-01-03T07:33:39.145Z,8.90
2023-01-03T07:36:11.591Z,8.90
2023-01-03T07:38:39.363Z,8.90
2023-01-03T07:41:08.173Z,8.90
2023-01-03T07:43:38.500Z,8.90
2023-01-03T07:46:09.477Z,8.90
2023-01-03T07:48:36.658Z,8.90
2023-01-03T07:51:03.650Z,8.90
2023-01-03T07:53:30.437Z,8.90
2023-01-03T07:56:12.617Z,8.90
2023-01-03T07:58:40.962Z,8.90
2023-01-03T08:01:18.513Z,8.90
2023-01-03T08:03:45.416Z,8.90
2023-01-03T08:06:13.503Z,8.90
2023-01-03T08:08:40.408Z,8.80
2023-01-03T08:11:26.202Z,8.90
2023-01-03T08:13:53.001Z,8.90
2023-01-03T08:16:19.725Z,8.90
2023-01-03T08:18:46.349Z,8.80
2023-01-03T08:21:13.740Z,8.80
2023-01-03T08:23:41.175Z,8.80
2023-01-03T08:26:10.551Z,8.80
2023-01-03T08:28:37.376Z,8.80
2023-01-03T08:31:07.970Z,8.80
2023-01-03T08:33:38.091Z,8.80
2023-01-03T08:36:06.777Z,8.80
2023-01-03T08:38:36.196Z,8.80
2023-01-03T08:41:05.356Z,8.90
2023-01-03T08:43:34.829Z,8.90
2023-01-03T08:46:02.760Z,9.00
2023-01-03T08:48:29.338Z,9.00
2023-01-03T08:50:55.907Z,9.00
2023-01-03T08:53:24.319Z,9.10
2023-01-03T08:55:50.907Z,9.00
2023-01-03T08:58:18.399Z,9.00
2023-01-03T09:00:44.981Z,9.10
2023-01-03T09:03:11.748Z,9.10
2023-01-03T09:05:38.639Z,9.10
2023-01-03T09:08:05.691Z,9.20
2023-01-03T09:10:32.375Z,9.20
2023-01-03T09:12:58.956Z,9.20
2023-01-03T09:15:25.517Z,9.30
2023-01-03T09:17:52.099Z,9.30
2023-01-03T09:20:18.847Z,9.30
2023-01-03T09:22:47.640Z,9.30
2023-01-03T09:25:15.347Z,9.30
2023-01-03T09:27:45.612Z,8.90
2023-01-03T09:30:13.592Z,9.10
2023-01-03T09:32:40.644Z,9.00
2023-01-03T09:35:07.468Z,9.10
2023-01-03T09:37:34.033Z,9.10
2023-01-03T09:40:00.581Z,9.20
2023-01-03T09:42:46.387Z,9.30
2023-01-03T09:45:15.599Z,9.30
2023-01-03T09:47:42.843Z,9.40
2023-01-03T09:50:50.645Z,9.40
2023-01-03T09:53:23.107Z,9.50
2023-01-03T09:56:10.650Z,9.60
2023-01-03T09:58:55.760Z,9.70
2023-01-03T10:01:47.396Z,9.70
2023-01-03T10:04:38.819Z,9.60
2023-01-03T10:07:23.906Z,9.80
2023-01-03T10:10:02.305Z,9.70
2023-01-03T10:13:02.301Z,9.80
2023-01-03T10:15:28.853Z,9.80
2023-01-03T10:18:07.080Z,9.80
2023-01-03T10:20:38.939Z,9.80
2023-01-03T10:23:06.562Z,9.80
2023-01-03T10:25:33.132Z,9.80
2023-01-03T10:28:06.807Z,9.80
2023-01-03T10:30:56.728Z,9.70
2023-01-03T10:33:30.798Z,9.70
2023-01-03T10:35:58.372Z,11.70
2023-01-03T10:38:25.940Z,9.70
2023-01-03T10:40:57.476Z,9.70
2023-01-03T10:43:38.153Z,9.60
2023-01-03T10:46:27.130Z,9.70
2023-01-03T10:51:53.400Z,9.80
2023-01-03T10:54:20.052Z,9.80
2023-01-03T10:56:47.310Z,9.80
2023-01-03T10:59:17.046Z,9.70
2023-01-03T11:02:00.998Z,9.70
2023-01-03T11:04:31.688Z,9.80
2023-01-03T11:07:04.387Z,9.70
2023-01-03T11:09:35.893Z,9.70
2023-01-03T11:12:03.774Z,9.70
2023-01-03T11:14:30.408Z,9.70
2023-01-03T11:17:01.967Z,9.70
2023-01-03T11:19:29.753Z,9.70
2023-01-03T11:22:02.266Z,9.80
2023-01-03T11:24:35.053Z,9.80
2023-01-03T11:27:10.841Z,9.80
2023-01-03T11:29:56.115Z,9.80
2023-01-03T11:32:36.793Z,9.80
2023-01-03T11:35:22.801Z,9.90
2023-01-03T11:38:05.494Z,9.90
2023-01-03T11:40:48.345Z,9.90
2023-01-03T11:43:21.124Z,9.90
2023-01-03T11:46:06.311Z,9.90
2023-01-03T11:48:39.027Z,9.90
2023-01-03T11:51:17.652Z,9.90
2023-01-03T11:53:49.590Z,10.00
2023-01-03T11:56:28.935Z,10.00
2023-01-03T11:58:55.452Z,10.00
2023-01-03T12:01:39.560Z,10.00
2023-01-03T12:04:25.476Z,10.10
2023-01-03T12:07:46.240Z,10.10
2023-01-03T12:10:03.148Z,9.90
2023-01-03T12:12:41.847Z,9.90
2023-01-03T12:15:21.031Z,10.00
2023-01-03T12:17:53.238Z,10.10
2023-01-03T12:20:46.108Z,10.20
2023-01-03T12:23:20.374Z,10.20
2023-01-03T12:25:49.107Z,10.30
2023-01-03T12:28:38.741Z,10.40
2023-01-03T12:31:08.729Z,10.40
2023-01-03T12:33:54.129Z,10.40
2023-01-03T12:36:40.734Z,10.40
2023-01-03T12:39:19.760Z,10.30
2023-01-03T12:41:49.241Z,10.20
2023-01-03T12:44:26.741Z,10.10
2023-01-03T12:46:55.115Z,10.00
2023-01-03T12:49:25.669Z,10.00
2023-01-03T12:51:52.399Z,10.00
2023-01-03T12:54:37.274Z,10.00
2023-01-03T12:57:13.036Z,10.00
2023-01-03T12:59:58.148Z,10.10
2023-01-03T13:03:00.709Z,10.10
2023-01-03T13:05:33.018Z,10.10
2023-01-03T13:08:31.788Z,10.10
2023-01-03T13:11:00.328Z,10.10
2023-01-03T13:13:26.987Z,10.20
2023-01-03T13:15:53.905Z,10.10
2023-01-03T13:18:23.625Z,10.20
2023-01-03T13:20:54.026Z,10.20
2023-01-03T13:23:29.440Z,10.20
2023-01-03T13:26:05.668Z,10.10
2023-01-03T13:28:36.416Z,10.20
2023-01-03T13:31:18.466Z,10.20
2023-01-03T13:34:09.616Z,10.10
2023-01-03T13:37:08.785Z,10.10
2023-01-03T13:39:39.748Z,10.10
2023-01-03T13:42:06.553Z,10.20
2023-01-03T13:44:33.175Z,10.20
2023-01-03T13:46:59.956Z,10.10
2023-01-03T13:49:27.603Z,10.20
2023-01-03T13:51:57.810Z,10.10
2023-01-03T13:54:34.621Z,10.10
2023-01-03T13:57:03.479Z,10.10
2023-01-03T13:59:34.272Z,10.10
2023-01-03T14:02:01.039Z,10.00
2023-01-03T14:04:27.753Z,10.00
2023-01-03T14:07:06.610Z,10.00
2023-01-03T14:09:45.879Z,9.80
2023-01-03T14:12:12.408Z,9.80
2023-01-03T14:14:40.072Z,9.80
2023-01-03T14:17:17.594Z,9.70
2023-01-03T14:19:50.862Z,9.70
2023-01-03T14:22:30.336Z,9.70
2023-01-03T14:24:58.425Z,9.70
2023-01-03T14:27:32.847Z,9.70
2023-01-03T14:30:00.291Z,9.60
2023-01-03T14:32:34.033Z,9.60
2023-01-03T14:35:01.805Z,9.50
2023-01-03T14:37:28.503Z,9.50
2023-01-03T14:39:59.712Z,9.60
2023-01-03T14:42:26.679Z,9.50
2023-01-03T14:45:00.246Z,9.50
2023-01-03T14:47:37.709Z,9.50
2023-01-03T14:50:11.311Z,9.50
2023-01-03T14:52:40.727Z,9.50
2023-01-03T14:55:09.183Z,9.40
2023-01-03T14:57:39.384Z,9.40
2023-01-03T15:00:07.700Z,9.20
2023-01-03T15:02:37.000Z,9.20
2023-01-03T15:05:04.092Z,9.20
2023-01-03T15:07:30.654Z,9.20
2023-01-03T15:10:12.586Z,9.10
2023-01-03T15:12:44.591Z,9.10
2023-01-03T15:15:14.275Z,9.10
2023-01-03T15:17:40.948Z,9.10
2023-01-03T15:20:08.334Z,9.20
2023-01-03T15:22:41.177Z,9.20
2023-01-03T15:25:16.126Z,9.10
2023-01-03T15:27:44.143Z,9.20
2023-01-03T15:30:22.123Z,9.20
2023-01-03T15:32:53.065Z,9.10
2023-01-03T15:35:27.817Z,9.10
2023-01-03T15:37:54.701Z,9.10
2023-01-03T15:40:21.956Z,9.20
2023-01-03T15:43:07.367Z,9.10
2023-01-03T15:45:38.696Z,9.10
2023-01-03T15:48:13.960Z,9.10
2023-01-03T15:50:43.719Z,9.10
2023-01-03T15:53:18.312Z,9.10
2023-01-03T15:55:45.041Z,9.10
2023-01-03T15:58:11.616Z,9.10
2023-01-03T16:00:38.176Z,9.00
2023-01-03T16:03:05.077Z,9.00
2023-01-03T16:05:31.776Z,8.90
2023-01-03T16:07:58.412Z,8.90
2023-01-03T16:10:24.988Z,8.90
2023-01-03T16:12:51.559Z,8.90
2023-01-03T16:15:19.802Z,8.90
2023-01-03T16:17:46.403Z,8.90
2023-01-03T16:20:14.367Z,8.90
2023-01-03T16:22:49.583Z,8.90
2023-01-03T16:25:22.438Z,8.80
2023-01-03T16:27:49.018Z,8.80
2023-01-03T16:30:15.553Z,8.80
2023-01-03T16:32:42.354Z,8.80
2023-01-03T16:35:16.496Z,8.80
2023-01-03T16:37:43.144Z,8.80
2023-01-03T16:40:14.007Z,8.80
2023-01-03T16:42:40.618Z,8.80
2023-01-03T16:45:07.455Z,8.70
2023-01-03T16:47:35.580Z,8.70
2023-01-03T16:50:06.353Z,8.70
2023-01-03T16:52:43.870Z,8.60
2023-01-03T16:55:26.035Z,8.50
2023-01-03T16:57:54.967Z,8.40
2023-01-03T17:00:26.467Z,8.30
2023-01-03T17:02:55.706Z,8.20
2023-01-03T17:05:22.783Z,8.10
2023-01-03T17:07:50.818Z,7.90
2023-01-03T17:10:31.221Z,7.80
2023-01-03T17:12:58.035Z,7.60
2023-01-03T17:15:24.607Z,7.50
2023-01-03T17:17:51.156Z,7.40
2023-01-03T17:20:18.697Z,7.30
2023-01-03T17:22:48.854Z,7.20
2023-01-03T17:25:15.521Z,7.10
2023-01-03T17:27:44.046Z,7.00
2023-01-03T17:30:16.478Z,6.90
2023-01-03T17:32:44.537Z,6.80
2023-01-03T17:35:14.845Z,6.70
2023-01-03T17:38:14.049Z,6.60
2023-01-03T17:40:33.605Z,6.60
2023-01-03T17:43:00.795Z,6.60
2023-01-03T17:45:46.208Z,6.60
2023-01-03T17:48:31.605Z,6.60
2023-01-03T17:50:58.631Z,6.60
2023-01-03T17:53:25.885Z,6.70
2023-01-03T17:55:52.602Z,6.70
2023-01-03T17:58:32.785Z,6.70
2023-01-03T18:00:59.416Z,6.70
2023-01-03T18:03:26.092Z,6.70
2023-01-03T18:05:52.867Z,6.70
2023-01-03T18:08:21.530Z,6.60
2023-01-03T18:10:48.763Z,6.60
2023-01-03T18:13:34.604Z,6.50
2023-01-03T18:16:01.599Z,6.50
2023-01-03T18:18:28.932Z,6.40
2023-01-03T18:20:56.813Z,6.30
2023-01-03T18:23:33.983Z,6.30
2023-01-03T18:26:02.937Z,6.20
2023-01-03T18:28:29.533Z,6.20
2023-01-03T18:30:56.563Z,6.20
2023-01-03T18:33:23.761Z,6.20
2023-01-03T18:35:50.551Z,6.20
2023-01-03T18:38:23.860Z,6.30
2023-01-03T18:40:50.911Z,6.30
2023-01-03T18:43:18.357Z,6.40
2023-01-03T18:45:44.913Z,6.40
2023-01-03T18:48:15.827Z,6.50
2023-01-03T18:50:43.317Z,6.50
2023-01-03T18:53:14.649Z,6.50
2023-01-03T18:55:41.232Z,6.50
2023-01-03T18:58:14.164Z,6.50
2023-01-03T19:00:40.803Z,6.60
2023-01-03T19:03:19.972Z,6.60
2023-01-03T19:05:46.632Z,6.70
2023-01-03T19:08:15.021Z,6.70
2023-01-03T19:10:41.583Z,6.80
2023-01-03T19:13:10.684Z,6.80
2023-01-03T19:15:37.281Z,6.80
2023-01-03T19:18:03.985Z,6.90
2023-01-03T19:20:30.651Z,7.00
2023-01-03T19:22:57.236Z,7.10
2023-01-03T19:25:26.091Z,7.10
2023-01-03T19:27:54.076Z,7.20
2023-01-03T19:30:22.311Z,7.20
2023-01-03T19:32:55.841Z,7.30
2023-01-03T19:35:23.387Z,7.30
2023-01-03T19:37:50.579Z,7.30
2023-01-03T19:40:18.318Z,7.30
2023-01-03T19:42:50.631Z,7.30
2023-01-03T19:45:21.420Z,7.30
2023-01-03T19:47:47.992Z,7.30
2023-01-03T19:50:19.383Z,7.30
2023-01-03T19:52:47.010Z,7.30
2023-01-03T19:55:13.922Z,7.40
2023-01-03T19:57:42.517Z,7.40
2023-01-03T20:00:17.542Z,7.40
2023-01-03T20:02:44.522Z,7.40
2023-01-03T20:05:22.882Z,7.30
2023-01-03T20:07:49.681Z,7.30
2023-01-03T20:10:21.483Z,7.30
2023-01-03T20:12:49.088Z,7.30
2023-01-03T20:15:26.326Z,7.30
2023-01-03T20:17:53.334Z,7.30
2023-01-03T20:20:20.629Z,7.30
2023-01-03T20:23:05.815Z,7.20
2023-01-03T20:25:34.362Z,7.20
2023-01-03T20:28:01.444Z,7.10
2023-01-03T20:30:29.094Z,7.00
2023-01-03T20:32:55.723Z,6.80
2023-01-03T20:38:11.385Z,6.60
2023-01-03T20:40:38.051Z,6.50
2023-01-03T20:43:05.586Z,6.50
2023-01-03T20:45:32.250Z,6.50
2023-01-03T20:47:59.211Z,6.50
2023-01-03T20:50:26.786Z,6.40
2023-01-03T20:52:53.627Z,6.40
2023-01-03T20:55:21.287Z,6.40
2023-01-03T20:57:48.472Z,6.30
2023-01-03T21:00:23.942Z,6.30
2023-01-03T21:02:51.072Z,6.30
2023-01-03T21:05:17.997Z,6.20
2023-01-03T21:08:03.511Z,6.20
2023-01-03T21:10:35.696Z,6.20
2023-01-03T21:13:02.275Z,6.30
2023-01-03T21:15:28.851Z,6.30
2023-01-03T21:17:55.420Z,6.40
2023-01-03T21:20:23.700Z,6.40
2023-01-03T21:22:50.255Z,6.40
2023-01-03T21:25:21.844Z,6.50
2023-01-03T21:27:48.548Z,6.50
2023-01-03T21:30:16.255Z,6.60
2023-01-03T21:32:43.031Z,6.60
2023-01-03T21:35:12.073Z,6.60
2023-01-03T21:37:38.775Z,6.70
2023-01-03T21:40:05.770Z,6.70
2023-01-03T21:43:05.458Z,6.70
2023-01-03T21:45:38.388Z,6.70
2023-01-03T21:48:06.482Z,6.80
2023-01-03T21:50:34.093Z,6.70
2023-01-03T21:53:00.724Z,6.70
2023-01-03T21:55:27.465Z,6.70
2023-01-03T21:57:54.021Z,6.70
2023-01-03T22:00:20.600Z,6.60
2023-01-03T22:03:06.338Z,6.60
2023-01-03T22:05:33.059Z,6.50
2023-01-03T22:08:00.872Z,6.50
2023-01-03T22:10:28.404Z,6.40
2023-01-03T22:12:56.488Z,6.40
2023-01-03T22:15:24.499Z,6.30
2023-01-03T22:17:51.631Z,6.30
2023-01-03T22:20:18.908Z,6.20
2023-01-03T22:22:45.808Z,6.20
2023-01-03T22:25:13.657Z,6.10
2023-01-03T22:27:40.225Z,6.00
2023-01-03T22:30:07.782Z,5.90
2023-01-03T22:32:34.600Z,5.90
2023-01-03T22:35:01.186Z,5.80
2023-01-03T22:37:27.810Z,5.70
2023-01-03T22:39:54.360Z,5.70
2023-01-03T22:42:20.956Z,5.70
2023-01-03T22:44:47.649Z,5.60
2023-01-03T22:47:14.265Z,5.50
2023-01-03T22:49:40.806Z,5.50
2023-01-03T22:52:07.395Z,5.40
2023-01-03T22:54:35.334Z,5.40
2023-01-03T22:57:02.260Z,5.30
2023-01-03T22:59:30.405Z,5.20
2023-01-03T23:01:57.491Z,5.20
2023-01-03T23:04:26.370Z,5.10
2023-01-03T23:06:53.855Z,5.10
2023-01-03T23:09:21.245Z,5.00
2023-01-03T23:12:06.700Z,5.00
2023-01-03T23:14:33.415Z,5.00
2023-01-03T23:17:20.027Z,4.90
2023-01-03T23:19:46.624Z,4.90
2023-01-03T23:22:13.245Z,4.90
2023-01-03T23:24:39.833Z,4.90
2023-01-03T23:27:06.550Z,4.90
2023-01-03T23:29:33.135Z,4.90
2023-01-03T23:32:00.066Z,4.90
2023-01-03T23:34:26.644Z,4.90
2023-01-03T23:36:53.197Z,4.90
2023-01-03T23:39:19.785Z,4.90
2023-01-03T23:41:46.490Z,4.80
2023-01-03T23:44:13.228Z,4.80
2023-01-03T23:46:39.966Z,4.70
2023-01-03T23:49:06.743Z,4.70
2023-01-03T23:51:33.278Z,4.60
2023-01-03T23:53:59.852Z,4.60
2023-01-03T23:56:26.403Z,4.50
2023-01-03T23:58:53.078Z,4.50
